createdAt,value
2022-11-12T00:01:58.577Z,16.70
2022-11-12T00:04:28.856Z,15.48
2022-11-12T00:06:59.088Z,13.73
2022-11-12T00:09:31.731Z,15.57
2022-11-12T00:12:01.869Z,14.25
2022-11-12T00:14:31.858Z,15.23
2022-11-12T00:17:01.934Z,14.00
2022-11-12T00:19:31.966Z,16.80
2022-11-12T00:22:02.340Z,14.57
2022-11-12T00:24:35.122Z,14.57
2022-11-12T00:27:06.323Z,13.32
2022-11-12T00:32:06.478Z,13.93
2022-11-12T00:34:38.212Z,15.40
2022-11-12T00:37:08.786Z,14.45
2022-11-12T00:39:41.470Z,16.55
2022-11-12T00:42:11.809Z,14.45
2022-11-12T00:44:42.040Z,16.25
2022-11-12T00:47:12.240Z,15.98
2022-11-12T00:49:42.807Z,15.57
2022-11-12T00:52:12.899Z,13.25
2022-11-12T00:54:45.635Z,13.75
2022-11-12T00:57:15.715Z,16.27
2022-11-12T00:59:45.776Z,14.45
2022-11-12T01:02:15.831Z,15.18
2022-11-12T01:04:46.115Z,15.18
2022-11-12T01:07:16.474Z,14.65
2022-11-12T01:09:49.283Z,12.32
2022-11-12T01:12:19.375Z,11.82
2022-11-12T01:14:49.483Z,13.45
2022-11-12T01:17:19.651Z,14.63
2022-11-12T01:19:49.656Z,14.57
2022-11-12T01:22:20.349Z,14.13
2022-11-12T01:24:53.337Z,13.15
2022-11-12T01:27:23.719Z,13.20
2022-11-12T01:29:53.766Z,13.32
2022-11-12T01:32:26.999Z,14.57
2022-11-12T01:34:57.064Z,14.77
2022-11-12T01:37:27.147Z,15.57
2022-11-12T01:39:59.846Z,14.73
2022-11-12T01:42:32.882Z,11.63
2022-11-12T01:45:03.025Z,12.50
2022-11-12T01:47:36.013Z,13.55
2022-11-12T01:50:16.915Z,13.02
2022-11-12T01:52:51.732Z,14.75
2022-11-12T01:55:28.820Z,13.88
2022-11-12T01:58:03.335Z,13.63
2022-11-12T02:00:33.611Z,13.93
2022-11-12T02:03:05.993Z,14.32
2022-11-12T02:05:40.035Z,13.45
2022-11-12T02:08:13.052Z,13.27
2022-11-12T02:10:45.702Z,13.32
2022-11-12T02:13:28.243Z,14.65
2022-11-12T02:15:59.053Z,16.00
2022-11-12T02:18:29.536Z,12.23
2022-11-12T02:21:01.976Z,14.10
2022-11-12T02:23:34.624Z,12.77
2022-11-12T02:26:04.807Z,13.38
2022-11-12T02:28:36.441Z,15.13
2022-11-12T02:31:06.663Z,12.07
2022-11-12T02:33:38.440Z,14.00
2022-11-12T02:36:09.099Z,12.05
2022-11-12T02:38:47.859Z,11.75
2022-11-12T02:41:18.399Z,14.25
2022-11-12T02:43:48.735Z,11.95
2022-11-12T02:46:19.087Z,11.80
2022-11-12T02:48:49.150Z,13.73
2022-11-12T02:51:19.124Z,12.68
2022-11-12T02:53:51.757Z,12.70
2022-11-12T02:56:21.689Z,12.60
2022-11-12T02:58:52.087Z,13.98
2022-11-12T03:01:22.162Z,14.05
2022-11-12T03:03:52.230Z,12.98
2022-11-12T03:06:22.549Z,14.10
2022-11-12T03:08:55.201Z,12.02
2022-11-12T03:11:25.289Z,12.00
2022-11-12T03:13:55.484Z,12.85
2022-11-12T03:16:27.575Z,14.52
2022-11-12T03:19:00.640Z,13.82
2022-11-12T03:21:30.809Z,11.18
2022-11-12T03:24:04.671Z,15.10
2022-11-12T03:26:36.068Z,13.23
2022-11-12T03:29:06.423Z,12.63
2022-11-12T03:31:36.605Z,13.20
2022-11-12T03:34:06.837Z,12.85
2022-11-12T03:36:37.032Z,12.90
2022-11-12T03:39:09.972Z,12.93
2022-11-12T03:41:40.238Z,11.20
2022-11-12T03:44:10.314Z,13.23
2022-11-12T03:46:44.131Z,13.35
2022-11-12T03:49:14.553Z,13.50
2022-11-12T03:51:44.474Z,13.43
2022-11-12T03:54:17.403Z,14.55
2022-11-12T03:56:49.508Z,13.80
2022-11-12T03:59:19.771Z,14.20
2022-11-12T04:01:49.979Z,14.57
2022-11-12T04:04:20.253Z,13.27
2022-11-12T04:07:02.708Z,14.90
2022-11-12T04:09:35.455Z,16.25
2022-11-12T04:12:26.587Z,13.50
2022-11-12T04:14:55.319Z,16.15
2022-11-12T04:17:37.742Z,14.02
2022-11-12T04:20:20.914Z,15.43
2022-11-12T04:22:51.256Z,14.52
2022-11-12T04:25:38.147Z,15.25
2022-11-12T04:28:08.182Z,13.65
2022-11-12T04:30:38.189Z,15.13
2022-11-12T04:33:13.922Z,11.85
2022-11-12T04:35:43.900Z,14.43
2022-11-12T04:38:14.086Z,14.43
2022-11-12T04:40:59.098Z,14.65
2022-11-12T04:43:41.504Z,15.68
2022-11-12T04:46:14.578Z,15.75
2022-11-12T04:48:44.817Z,17.65
2022-11-12T04:51:27.535Z,14.25
2022-11-12T04:54:18.882Z,15.38
2022-11-12T04:56:51.484Z,14.38
2022-11-12T04:59:21.628Z,15.07
2022-11-12T05:01:51.635Z,13.20
2022-11-12T05:04:22.045Z,15.23
2022-11-12T05:06:55.542Z,11.00
2022-11-12T05:09:27.046Z,12.63
2022-11-12T05:11:59.964Z,14.43
2022-11-12T05:14:30.221Z,16.10
2022-11-12T05:17:00.166Z,11.73
2022-11-12T05:19:30.252Z,12.80
2022-11-12T05:22:06.525Z,14.13
2022-11-12T05:24:42.734Z,12.15
2022-11-12T05:27:17.999Z,11.35
2022-11-12T05:29:48.037Z,11.88
2022-11-12T05:32:19.384Z,14.85
2022-11-12T05:34:49.436Z,14.13
2022-11-12T05:37:19.728Z,12.45
2022-11-12T05:39:49.768Z,12.85
2022-11-12T05:42:22.379Z,12.60
2022-11-12T05:44:52.447Z,12.68
2022-11-12T05:47:22.404Z,11.15
2022-11-12T05:49:52.427Z,13.57
2022-11-12T05:52:22.733Z,11.48
2022-11-12T05:54:52.877Z,12.45
2022-11-12T05:57:25.468Z,13.52
2022-11-12T05:59:55.880Z,12.02
2022-11-12T06:02:25.847Z,17.80
2022-11-12T06:04:56.200Z,11.27
2022-11-12T06:07:26.374Z,11.50
2022-11-12T06:09:56.590Z,11.88
2022-11-12T06:12:29.190Z,15.23
2022-11-12T06:14:59.197Z,16.95
2022-11-12T06:17:29.617Z,17.30
2022-11-12T06:19:59.689Z,13.07
2022-11-12T06:22:29.724Z,12.07
2022-11-12T06:24:59.779Z,13.23
2022-11-12T06:27:32.423Z,14.27
2022-11-12T06:30:02.745Z,27.95
2022-11-12T06:32:33.018Z,10.98
2022-11-12T06:35:03.108Z,10.90
2022-11-12T06:37:33.317Z,12.60
2022-11-12T06:40:03.673Z,12.68
2022-11-12T06:42:36.596Z,19.80
2022-11-12T06:45:07.576Z,14.55
2022-11-12T06:47:37.797Z,10.98
2022-11-12T06:50:09.734Z,10.50
2022-11-12T06:52:39.808Z,13.30
2022-11-12T06:55:12.897Z,13.13
2022-11-12T06:57:45.637Z,10.60
2022-11-12T07:00:17.038Z,10.55
2022-11-12T07:02:47.044Z,10.77
2022-11-12T07:05:17.205Z,12.63
2022-11-12T07:07:47.239Z,10.75
2022-11-12T07:10:17.330Z,9.02
2022-11-12T07:12:53.373Z,14.25
2022-11-12T07:15:23.801Z,12.80
2022-11-12T07:17:54.015Z,10.32
2022-11-12T07:20:24.030Z,13.63
2022-11-12T07:22:54.021Z,11.90
2022-11-12T07:25:24.164Z,12.90
2022-11-12T07:27:56.795Z,12.18
2022-11-12T07:30:26.863Z,10.68
2022-11-12T07:33:00.163Z,11.20
2022-11-12T07:35:30.539Z,11.15
2022-11-12T07:38:00.879Z,11.10
2022-11-12T07:40:30.906Z,11.55
2022-11-12T07:43:04.946Z,16.48
2022-11-12T07:45:35.175Z,10.75
2022-11-12T07:48:05.181Z,13.18
2022-11-12T07:50:35.402Z,15.93
2022-11-12T07:53:06.916Z,13.00
2022-11-12T07:55:37.014Z,11.25
2022-11-12T07:58:09.579Z,10.13
2022-11-12T08:00:39.569Z,7.30
2022-11-12T08:03:09.474Z,7.53
2022-11-12T08:05:39.455Z,8.13
2022-11-12T08:08:09.466Z,9.40
2022-11-12T08:10:39.599Z,10.43
2022-11-12T08:13:12.177Z,8.30
2022-11-12T08:15:42.418Z,8.40
2022-11-12T08:18:12.347Z,10.23
2022-11-12T08:20:42.775Z,12.55
2022-11-12T08:23:13.054Z,11.60
2022-11-12T08:25:43.333Z,8.82
2022-11-12T08:28:15.983Z,11.20
2022-11-12T08:30:45.965Z,9.75
2022-11-12T08:33:15.893Z,9.20
2022-11-12T08:35:45.957Z,10.38
2022-11-12T08:38:16.774Z,8.93
2022-11-12T08:40:46.839Z,11.02
2022-11-12T08:43:19.357Z,11.10
2022-11-12T08:45:50.210Z,9.30
2022-11-12T08:48:20.116Z,11.55
2022-11-12T08:50:50.163Z,9.75
2022-11-12T08:53:20.134Z,8.23
2022-11-12T08:55:50.117Z,8.27
2022-11-12T08:58:22.699Z,7.28
2022-11-12T09:00:52.953Z,8.05
2022-11-12T09:03:25.019Z,9.85
2022-11-12T09:05:55.762Z,8.13
2022-11-12T09:08:27.810Z,7.70
2022-11-12T09:11:00.579Z,7.55
2022-11-12T09:13:33.198Z,7.95
2022-11-12T09:16:04.968Z,8.18
2022-11-12T09:18:35.939Z,7.05
2022-11-12T09:21:07.974Z,9.40
2022-11-12T09:23:39.058Z,6.88
2022-11-12T09:26:09.822Z,7.95
2022-11-12T09:28:43.099Z,7.90
2022-11-12T09:31:13.207Z,8.05
2022-11-12T09:33:43.146Z,7.30
2022-11-12T09:36:13.355Z,6.88
2022-11-12T09:38:43.287Z,8.50
2022-11-12T09:41:30.652Z,7.13
2022-11-12T09:44:05.436Z,7.53
2022-11-12T09:46:41.801Z,7.45
2022-11-12T09:49:19.063Z,8.23
2022-11-12T09:51:55.787Z,7.78
2022-11-12T09:54:27.881Z,7.93
2022-11-12T09:56:58.544Z,7.13
2022-11-12T09:59:34.768Z,6.72
2022-11-12T10:02:18.776Z,10.85
2022-11-12T10:05:02.749Z,8.35
2022-11-12T10:07:46.341Z,9.70
2022-11-12T10:10:18.532Z,18.17
2022-11-12T10:13:01.760Z,19.35
2022-11-12T10:16:13.891Z,7.97
2022-11-12T10:19:02.302Z,9.13
2022-11-12T10:21:39.446Z,8.85
2022-11-12T10:24:12.412Z,8.57
2022-11-12T10:26:42.978Z,8.77
2022-11-12T10:29:22.378Z,7.90
2022-11-12T10:31:54.933Z,9.98
2022-11-12T10:34:26.770Z,8.23
2022-11-12T10:37:00.220Z,8.73
2022-11-12T10:39:38.450Z,7.03
2022-11-12T10:42:10.632Z,7.38
2022-11-12T10:44:42.515Z,6.15
2022-11-12T10:47:43.122Z,7.13
2022-11-12T10:50:22.691Z,7.38
2022-11-12T10:53:01.093Z,8.18
2022-11-12T10:55:32.744Z,10.60
2022-11-12T10:58:19.875Z,8.27
2022-11-12T11:00:58.996Z,8.63
2022-11-12T11:03:34.400Z,8.73
2022-11-12T11:06:07.732Z,11.32
2022-11-12T11:08:42.726Z,8.32
2022-11-12T11:11:24.514Z,7.88
2022-11-12T11:13:55.971Z,7.68
2022-11-12T11:16:28.031Z,6.13
2022-11-12T11:19:02.723Z,6.80
2022-11-12T11:21:49.391Z,5.88
2022-11-12T11:24:29.966Z,5.70
2022-11-12T11:27:05.939Z,5.47
2022-11-12T11:29:48.835Z,7.60
2022-11-12T11:32:37.225Z,5.85
2022-11-12T11:35:21.959Z,6.00
2022-11-12T11:37:58.588Z,7.25
2022-11-12T11:40:33.048Z,6.15
2022-11-12T11:43:26.505Z,7.53
2022-11-12T11:46:09.648Z,6.10
2022-11-12T11:48:47.760Z,8.02
2022-11-12T11:51:41.248Z,7.95
2022-11-12T11:54:25.480Z,16.08
2022-11-12T11:57:00.860Z,7.75
2022-11-12T11:59:39.646Z,6.82
2022-11-12T12:02:39.507Z,6.72
2022-11-12T12:05:29.103Z,6.20
2022-11-12T12:08:06.068Z,7.55
2022-11-12T12:11:06.871Z,8.35
2022-11-12T12:13:46.060Z,9.70
2022-11-12T12:16:34.185Z,9.65
2022-11-12T12:19:11.016Z,6.43
2022-11-12T12:21:46.528Z,8.05
2022-11-12T12:24:22.929Z,6.70
2022-11-12T12:26:56.905Z,8.63
2022-11-12T12:29:32.668Z,6.28
2022-11-12T12:32:09.741Z,7.60
2022-11-12T12:34:42.812Z,8.65
2022-11-12T12:37:20.032Z,8.98
2022-11-12T12:39:57.862Z,7.40
2022-11-12T12:42:32.227Z,8.77
2022-11-12T12:45:08.915Z,9.35
2022-11-12T12:47:43.329Z,9.27
2022-11-12T12:50:17.140Z,8.05
2022-11-12T12:53:02.665Z,7.80
2022-11-12T12:55:44.271Z,9.38
2022-11-12T12:58:30.328Z,8.65
2022-11-12T13:01:08.216Z,7.28
2022-11-12T13:04:04.590Z,6.20
2022-11-12T13:06:37.254Z,7.32
2022-11-12T13:09:10.189Z,9.23
2022-11-12T13:12:10.841Z,7.78
2022-11-12T13:15:15.376Z,5.97
2022-11-12T13:17:51.026Z,7.07
2022-11-12T13:20:40.310Z,7.35
2022-11-12T13:23:55.650Z,7.20
2022-11-12T13:26:59.165Z,7.10
2022-11-12T13:32:33.960Z,5.85
2022-11-12T13:35:23.474Z,9.35
2022-11-12T13:37:56.424Z,4.88
2022-11-12T13:40:41.610Z,6.93
2022-11-12T13:43:35.667Z,8.13
2022-11-12T13:46:27.347Z,104.90
2022-11-12T13:49:02.782Z,8.82
2022-11-12T13:51:43.075Z,6.00
2022-11-12T13:54:30.530Z,5.97
2022-11-12T13:57:15.351Z,6.28
2022-11-12T13:59:50.219Z,7.05
2022-11-12T14:02:25.515Z,7.95
2022-11-12T14:04:56.811Z,8.27
2022-11-12T14:07:44.528Z,6.57
2022-11-12T14:10:28.792Z,5.90
2022-11-12T14:13:31.589Z,6.03
2022-11-12T14:16:18.482Z,7.75
2022-11-12T14:19:22.029Z,7.78
2022-11-12T14:22:17.622Z,8.60
2022-11-12T14:24:48.996Z,6.32
2022-11-12T14:27:36.736Z,5.97
2022-11-12T14:30:21.688Z,8.82
2022-11-12T14:32:56.279Z,7.35
2022-11-12T14:35:33.161Z,7.07
2022-11-12T14:38:07.035Z,7.85
2022-11-12T14:40:40.359Z,6.38
2022-11-12T14:43:27.292Z,5.65
2022-11-12T14:45:59.947Z,5.80
2022-11-12T14:48:33.613Z,5.50
2022-11-12T14:51:08.893Z,5.95
2022-11-12T14:53:44.084Z,6.65
2022-11-12T14:56:28.946Z,6.10
2022-11-12T14:59:03.290Z,6.80
2022-11-12T15:04:29.649Z,8.68
2022-11-12T15:07:00.169Z,9.32
2022-11-12T15:09:38.542Z,8.55
2022-11-12T15:12:12.745Z,6.22
2022-11-12T15:14:43.049Z,8.90
2022-11-12T15:17:30.360Z,6.40
2022-11-12T15:20:08.511Z,6.78
2022-11-12T15:22:38.509Z,7.90
2022-11-12T15:25:22.046Z,5.80
2022-11-12T15:27:52.894Z,5.93
2022-11-12T15:33:11.500Z,6.25
2022-11-12T15:35:45.455Z,17.67
2022-11-12T15:38:20.597Z,12.48
2022-11-12T15:40:57.803Z,9.25
2022-11-12T15:46:01.067Z,8.27
2022-11-12T15:48:31.143Z,8.68
2022-11-12T15:51:04.063Z,8.38
2022-11-12T15:53:34.003Z,9.63
2022-11-12T15:56:04.881Z,9.45
2022-11-12T16:01:08.001Z,10.45
2022-11-12T16:03:37.954Z,33.17
2022-11-12T16:06:14.063Z,62.85
2022-11-12T16:08:44.053Z,39.03
2022-11-12T16:11:35.561Z,33.50
2022-11-12T16:14:06.652Z,20.42
2022-11-12T16:16:39.365Z,26.73
2022-11-12T16:19:16.762Z,51.83
2022-11-12T16:24:20.521Z,21.15
2022-11-12T16:26:50.696Z,14.00
2022-11-12T16:29:20.690Z,13.93
2022-11-12T16:31:50.714Z,9.70
2022-11-12T16:34:20.882Z,11.27
2022-11-12T16:36:53.677Z,12.95
2022-11-12T16:39:23.632Z,11.18
2022-11-12T16:41:53.927Z,12.05
2022-11-12T16:44:23.836Z,12.00
2022-11-12T16:46:53.756Z,9.65
2022-11-12T16:49:24.067Z,10.90
2022-11-12T16:51:56.663Z,11.82
2022-11-12T16:54:26.610Z,13.25
2022-11-12T16:56:56.745Z,23.75
2022-11-12T16:59:26.686Z,21.65
2022-11-12T17:01:56.753Z,15.68
2022-11-12T17:04:27.599Z,13.18
2022-11-12T17:09:30.387Z,25.75
2022-11-12T17:12:00.318Z,55.58
2022-11-12T17:14:30.246Z,21.27
2022-11-12T17:17:00.245Z,17.58
2022-11-12T17:19:30.293Z,14.35
2022-11-12T17:22:02.859Z,14.07
2022-11-12T17:24:33.140Z,15.73
2022-11-12T17:27:03.124Z,15.52
2022-11-12T17:29:33.218Z,14.07
2022-11-12T17:32:03.116Z,17.73
2022-11-12T17:34:33.187Z,42.13
2022-11-12T17:37:05.732Z,27.15
2022-11-12T17:39:35.761Z,16.95
2022-11-12T17:42:06.211Z,16.17
2022-11-12T17:44:36.258Z,17.83
2022-11-12T17:47:06.355Z,17.92
2022-11-12T17:49:36.396Z,15.45
2022-11-12T17:52:08.996Z,18.35
2022-11-12T17:54:39.014Z,17.30
2022-11-12T17:57:09.193Z,25.70
2022-11-12T17:59:39.241Z,20.65
2022-11-12T18:02:09.428Z,20.80
2022-11-12T18:04:39.466Z,24.13
2022-11-12T18:07:14.383Z,30.20
2022-11-12T18:09:44.406Z,26.90
2022-11-12T18:12:14.342Z,32.80
2022-11-12T18:14:45.867Z,35.70
2022-11-12T18:17:16.227Z,37.53
2022-11-12T18:19:46.192Z,37.85
2022-11-12T18:22:19.557Z,35.35
2022-11-12T18:24:50.812Z,29.33
2022-11-12T18:27:20.737Z,27.42
2022-11-12T18:29:50.677Z,26.95
2022-11-12T18:32:20.598Z,26.73
2022-11-12T18:34:50.837Z,25.92
2022-11-12T18:37:23.417Z,22.88
2022-11-12T18:39:53.455Z,25.55
2022-11-12T18:42:23.771Z,25.92
2022-11-12T18:44:53.772Z,31.40
2022-11-12T18:47:23.728Z,28.05
2022-11-12T18:49:53.764Z,28.70
2022-11-12T18:52:26.462Z,29.35
2022-11-12T18:54:56.445Z,32.25
2022-11-12T18:57:26.451Z,28.08
2022-11-12T18:59:56.516Z,50.90
2022-11-12T19:02:26.710Z,30.35
2022-11-12T19:04:56.844Z,26.42
2022-11-12T19:07:29.479Z,30.08
2022-11-12T19:09:59.590Z,30.60
2022-11-12T19:12:29.548Z,30.75
2022-11-12T19:14:59.624Z,28.70
2022-11-12T19:17:31.174Z,28.92
2022-11-12T19:20:01.556Z,27.77
2022-11-12T19:22:34.205Z,29.88
2022-11-12T19:25:04.555Z,30.77
2022-11-12T19:27:34.559Z,32.60
2022-11-12T19:30:05.909Z,27.52
2022-11-12T19:32:36.120Z,30.23
2022-11-12T19:35:06.117Z,29.45
2022-11-12T19:37:38.727Z,30.45
2022-11-12T19:40:11.030Z,24.90
2022-11-12T19:42:41.084Z,27.42
2022-11-12T19:45:11.595Z,28.83
2022-11-12T19:47:41.649Z,29.58
2022-11-12T19:50:12.391Z,24.15
2022-11-12T19:52:44.956Z,25.27
2022-11-12T19:55:15.053Z,26.40
2022-11-12T19:57:47.438Z,28.75
2022-11-12T20:00:18.732Z,37.33
2022-11-12T20:02:48.911Z,26.00
2022-11-12T20:05:19.152Z,24.63
2022-11-12T20:07:53.961Z,28.35
2022-11-12T20:10:24.019Z,29.45
2022-11-12T20:12:53.999Z,26.90
2022-11-12T20:15:24.105Z,28.70
2022-11-12T20:17:54.304Z,25.27
2022-11-12T20:20:24.342Z,25.13
2022-11-12T20:22:56.931Z,28.50
2022-11-12T20:25:27.073Z,25.67
2022-11-12T20:27:57.279Z,29.23
2022-11-12T20:30:27.266Z,33.30
2022-11-12T20:32:57.294Z,26.25
2022-11-12T20:35:27.400Z,30.60
2022-11-12T20:38:00.063Z,31.17
2022-11-12T20:40:30.067Z,32.72
2022-11-12T20:43:00.178Z,32.47
